Time;durP1;ratioP1;P1;durP2;ratioP2;P2;SDS_P1;SDS_P2;PMS_P1;PMS_P2;Temp;Humidity;BMP_temperature;BMP_pressure;BME280_temperature;BME280_humidity;BME280_pressure;Samples;Min_cycle;Max_cycle;Signal;HPM_P1;HPM_P2
2022/06/20 00:01:37;;;;;;;;;;;14.70;99.90;;;;;;5092663;28;19912;-61
2022/06/20 00:04:03;;;;;;;;;;;14.80;99.90;;;;;;5107583;28;19964;-61
2022/06/20 00:06:29;;;;;;;;;;;14.80;99.90;;;;;;5110647;28;19946;-61
2022/06/20 00:08:55;;;;;;;;;;;14.80;99.90;;;;;;5109491;28;19896;-61
2022/06/20 00:11:28;;;;;;;;;;;14.70;99.90;;;;;;5106383;28;19912;-61
2022/06/20 00:13:55;;;;;;;;;;;14.80;99.90;;;;;;5109345;28;20003;-63
2022/06/20 00:16:21;;;;;;;;;;;14.80;99.90;;;;;;5108456;28;19936;-62
2022/06/20 00:18:47;;;;;;;;;;;14.60;99.90;;;;;;5114109;28;19900;-62
2022/06/20 00:21:14;;;;;;;;;;;14.50;99.90;;;;;;5097743;28;19922;-61
2022/06/20 00:23:39;;;;;;;;;;;14.40;99.90;;;;;;5116724;28;19950;-61
2022/06/20 00:26:05;;;;;;;;;;;14.40;99.90;;;;;;5114316;28;19912;-62
2022/06/20 00:28:31;;;;;;;;;;;14.40;99.90;;;;;;5116393;28;19933;-60
2022/06/20 00:30:56;;;;;;;;;;;14.40;99.90;;;;;;5114756;28;19983;-61
2022/06/20 00:33:22;;;;;;;;;;;14.30;99.90;;;;;;5094417;28;19942;-61
2022/06/20 00:35:47;;;;;;;;;;;14.20;99.90;;;;;;5111892;28;19924;-61
2022/06/20 00:38:16;;;;;;;;;;;14.30;99.90;;;;;;5114580;28;19912;-61
2022/06/20 00:40:48;;;;;;;;;;;14.20;99.90;;;;;;5112884;28;21090;-62
2022/06/20 00:43:15;;;;;;;;;;;14.20;99.90;;;;;;5115538;28;19912;-61
2022/06/20 00:45:43;;;;;;;;;;;14.20;99.90;;;;;;5111899;28;19912;-62
2022/06/20 00:48:11;;;;;;;;;;;14.20;99.90;;;;;;5113471;28;19915;-62
2022/06/20 00:50:37;;;;;;;;;;;14.20;99.90;;;;;;5115572;28;19904;-62
2022/06/20 00:53:13;;;;;;;;;;;14.20;99.90;;;;;;5115385;28;19923;-62
2022/06/20 00:55:47;;;;;;;;;;;14.20;99.90;;;;;;5115363;28;19938;-62
2022/06/20 00:58:31;;;;;;;;;;;14.20;99.90;;;;;;5113310;28;19908;-61
2022/06/20 01:00:58;;;;;;;;;;;14.10;99.90;;;;;;5113299;28;20031;-62
2022/06/20 01:03:26;;;;;;;;;;;13.90;99.90;;;;;;5115762;28;19900;-61
2022/06/20 01:05:53;;;;;;;;;;;13.80;99.90;;;;;;5115423;28;20147;-61
2022/06/20 01:08:19;;;;;;;;;;;13.80;99.90;;;;;;5097688;28;19896;-62
2022/06/20 01:10:50;;;;;;;;;;;13.90;99.90;;;;;;5114594;28;19912;-61
2022/06/20 01:13:17;;;;;;;;;;;13.70;99.90;;;;;;5109672;28;20332;-62
2022/06/20 01:15:44;;;;;;;;;;;13.70;99.90;;;;;;5114956;28;19920;-61
2022/06/20 01:18:18;;;;;;;;;;;13.50;99.90;;;;;;5113988;28;20236;-61
2022/06/20 01:20:45;;;;;;;;;;;13.50;99.90;;;;;;5113307;28;19919;-61
2022/06/20 01:23:10;;;;;;;;;;;13.40;99.90;;;;;;5113281;28;19979;-61
2022/06/20 01:25:47;;;;;;;;;;;13.40;99.90;;;;;;5114051;28;19912;-61
2022/06/20 01:28:15;;;;;;;;;;;13.50;99.90;;;;;;5113387;28;19923;-61
2022/06/20 01:30:43;;;;;;;;;;;13.50;99.90;;;;;;5106990;28;19944;-62
2022/06/20 01:33:09;;;;;;;;;;;13.50;99.90;;;;;;5109671;28;19981;-61
2022/06/20 01:38:20;;;;;;;;;;;13.50;99.90;;;;;;5111850;28;19906;-62
2022/06/20 01:43:31;;;;;;;;;;;13.40;99.90;;;;;;5104489;28;19919;-62
2022/06/20 01:45:57;;;;;;;;;;;13.20;99.90;;;;;;5108972;28;19919;-62
2022/06/20 01:48:23;;;;;;;;;;;13.20;99.90;;;;;;5106609;28;19975;-61
2022/06/20 01:50:49;;;;;;;;;;;13.10;99.90;;;;;;5111158;28;19952;-61
2022/06/20 01:53:17;;;;;;;;;;;13.00;99.90;;;;;;5110353;28;19915;-61
2022/06/20 01:55:45;;;;;;;;;;;12.90;99.90;;;;;;5110371;28;19920;-61
2022/06/20 01:58:14;;;;;;;;;;;12.90;99.90;;;;;;5108123;28;19908;-61
2022/06/20 02:00:39;;;;;;;;;;;12.90;99.90;;;;;;5111661;28;19912;-62
2022/06/20 02:03:07;;;;;;;;;;;12.90;99.90;;;;;;5106410;28;20389;-61
2022/06/20 02:05:33;;;;;;;;;;;12.80;99.90;;;;;;5108516;28;19975;-62
2022/06/20 02:08:06;;;;;;;;;;;12.70;99.90;;;;;;5110651;28;19912;-62
2022/06/20 02:10:35;;;;;;;;;;;12.70;99.90;;;;;;5111689;28;20355;-62
2022/06/20 02:13:02;;;;;;;;;;;12.70;99.90;;;;;;5109083;28;19972;-60
2022/06/20 02:15:30;;;;;;;;;;;12.60;99.90;;;;;;5110430;28;19927;-61
2022/06/20 02:17:56;;;;;;;;;;;12.60;99.90;;;;;;5110282;28;19920;-61
2022/06/20 02:20:23;;;;;;;;;;;12.50;99.90;;;;;;5110988;28;19983;-62
2022/06/20 02:22:50;;;;;;;;;;;12.50;99.90;;;;;;5107616;28;19920;-61
2022/06/20 02:25:18;;;;;;;;;;;12.50;99.90;;;;;;5090398;28;19912;-61
2022/06/20 02:27:47;;;;;;;;;;;12.50;99.90;;;;;;5109886;28;19912;-61
2022/06/20 02:30:13;;;;;;;;;;;12.60;99.90;;;;;;5108878;28;19913;-60
2022/06/20 02:32:40;;;;;;;;;;;12.50;99.90;;;;;;5107932;28;19944;-61
2022/06/20 02:35:08;;;;;;;;;;;12.50;99.90;;;;;;5106232;28;19904;-62
2022/06/20 02:37:34;;;;;;;;;;;12.40;99.90;;;;;;5091095;28;19927;-62
2022/06/20 02:40:01;;;;;;;;;;;12.50;99.90;;;;;;5109052;28;21462;-61
2022/06/20 02:42:53;;;;;;;;;;;12.40;99.90;;;;;;5106240;28;19923;-62
2022/06/20 02:45:19;;;;;;;;;;;12.30;99.90;;;;;;5065110;28;19913;-61
2022/06/20 02:47:47;;;;;;;;;;;12.20;99.90;;;;;;5107309;28;19923;-61
2022/06/20 02:50:13;;;;;;;;;;;12.30;99.90;;;;;;5107581;28;20266;-61
2022/06/20 02:52:50;;;;;;;;;;;12.30;99.90;;;;;;5107814;28;19912;-61
2022/06/20 02:55:17;;;;;;;;;;;12.30;99.90;;;;;;5109958;28;19920;-61
2022/06/20 02:57:44;;;;;;;;;;;12.20;99.90;;;;;;5091656;28;19920;-61
2022/06/20 03:00:18;;;;;;;;;;;12.10;99.90;;;;;;5104165;28;19919;-62
2022/06/20 03:02:47;;;;;;;;;;;12.00;99.90;;;;;;5108071;28;19919;-62
2022/06/20 03:05:12;;;;;;;;;;;12.00;99.90;;;;;;5108285;28;19914;-61
2022/06/20 03:07:44;;;;;;;;;;;11.90;99.90;;;;;;5105401;28;20004;-61
2022/06/20 03:10:19;;;;;;;;;;;11.80;99.90;;;;;;5108043;28;19935;-61
2022/06/20 03:12:44;;;;;;;;;;;11.90;99.90;;;;;;5105758;28;19914;-61
2022/06/20 03:15:10;;;;;;;;;;;11.90;99.90;;;;;;5105549;28;19948;-61
2022/06/20 03:17:36;;;;;;;;;;;11.80;99.90;;;;;;5107628;28;19912;-62
2022/06/20 03:20:03;;;;;;;;;;;11.80;99.90;;;;;;5109258;28;19916;-61
2022/06/20 03:22:33;;;;;;;;;;;11.80;99.90;;;;;;5108396;28;19936;-61
2022/06/20 03:24:59;;;;;;;;;;;11.80;99.90;;;;;;5107248;28;19922;-61
2022/06/20 03:27:27;;;;;;;;;;;11.70;99.90;;;;;;5108966;28;19912;-61
2022/06/20 03:29:55;;;;;;;;;;;11.80;99.90;;;;;;5105870;28;19916;-61
2022/06/20 03:32:23;;;;;;;;;;;11.70;99.90;;;;;;5107103;28;19896;-61
2022/06/20 03:34:48;;;;;;;;;;;11.70;99.90;;;;;;5086949;28;19917;-61
2022/06/20 03:37:14;;;;;;;;;;;11.70;99.90;;;;;;5108721;28;19932;-62
2022/06/20 03:39:40;;;;;;;;;;;11.70;99.90;;;;;;5107477;28;19923;-62
2022/06/20 03:42:06;;;;;;;;;;;11.60;99.90;;;;;;5091170;28;19938;-61
2022/06/20 03:44:33;;;;;;;;;;;11.80;99.90;;;;;;5107458;28;19968;-61
2022/06/20 03:47:03;;;;;;;;;;;11.80;99.90;;;;;;5092407;28;19920;-61
2022/06/20 03:50:01;;;;;;;;;;;11.90;99.90;;;;;;5108671;28;19909;-61
2022/06/20 03:52:42;;;;;;;;;;;11.80;99.90;;;;;;5061358;28;19912;-62
2022/06/20 03:55:17;;;;;;;;;;;11.80;99.90;;;;;;5106422;28;19920;-62
2022/06/20 03:58:03;;;;;;;;;;;11.80;99.90;;;;;;5109685;28;19920;-62
2022/06/20 04:00:35;;;;;;;;;;;11.90;99.90;;;;;;5106996;28;19896;-62
2022/06/20 04:03:03;;;;;;;;;;;11.70;99.90;;;;;;5105451;28;19920;-61
2022/06/20 04:05:32;;;;;;;;;;;11.80;99.90;;;;;;5105745;28;19913;-61
2022/06/20 04:08:01;;;;;;;;;;;11.70;99.90;;;;;;5107162;28;19912;-60
2022/06/20 04:13:20;;;;;;;;;;;11.70;99.90;;;;;;5105942;28;19976;-61
2022/06/20 04:15:49;;;;;;;;;;;11.70;99.90;;;;;;5106567;28;19924;-61
2022/06/20 04:18:27;;;;;;;;;;;11.70;99.90;;;;;;5106771;28;19927;-61
2022/06/20 04:21:13;;;;;;;;;;;11.70;99.90;;;;;;5106946;28;19916;-61
2022/06/20 04:23:39;;;;;;;;;;;11.70;99.90;;;;;;5055226;28;19919;-61
2022/06/20 04:26:19;;;;;;;;;;;11.60;99.90;;;;;;5102368;28;20014;-61
2022/06/20 04:28:50;;;;;;;;;;;11.60;99.90;;;;;;5103315;28;19912;-61
2022/06/20 04:31:17;;;;;;;;;;;11.60;99.90;;;;;;5106189;28;19971;-61
2022/06/20 04:34:03;;;;;;;;;;;11.50;99.90;;;;;;5105953;28;19965;-61
2022/06/20 04:36:35;;;;;;;;;;;11.50;99.90;;;;;;5102335;28;19927;-61
2022/06/20 04:39:10;;;;;;;;;;;11.40;99.90;;;;;;5105913;28;19916;-62
2022/06/20 04:41:42;;;;;;;;;;;11.50;99.90;;;;;;5091275;28;20030;-62
2022/06/20 04:44:20;;;;;;;;;;;11.40;99.90;;;;;;5088874;28;19927;-62
2022/06/20 04:47:20;;;;;;;;;;;11.40;99.90;;;;;;5107113;28;20320;-62
2022/06/20 04:49:47;;;;;;;;;;;11.50;99.90;;;;;;5024782;28;19921;-61
2022/06/20 04:52:15;;;;;;;;;;;11.40;99.90;;;;;;5089741;28;19922;-61
2022/06/20 04:54:41;;;;;;;;;;;11.50;99.90;;;;;;5108155;28;19912;-60
2022/06/20 04:57:08;;;;;;;;;;;11.50;99.90;;;;;;5108331;28;20074;-62
2022/06/20 04:59:34;;;;;;;;;;;11.60;99.90;;;;;;5100198;28;19939;-61
2022/06/20 05:02:02;;;;;;;;;;;11.70;99.90;;;;;;5105985;28;19953;-62
2022/06/20 05:04:38;;;;;;;;;;;11.80;99.90;;;;;;5108155;28;19919;-61
2022/06/20 05:07:12;;;;;;;;;;;11.80;99.90;;;;;;5107180;28;19916;-62
2022/06/20 05:09:41;;;;;;;;;;;11.70;99.90;;;;;;5112582;28;19916;-62
2022/06/20 05:12:14;;;;;;;;;;;11.70;99.90;;;;;;5111706;28;19913;-62
2022/06/20 05:14:47;;;;;;;;;;;11.60;99.90;;;;;;5112536;28;19942;-63
2022/06/20 05:17:17;;;;;;;;;;;11.70;99.90;;;;;;5112665;28;19935;-62
2022/06/20 05:19:44;;;;;;;;;;;11.70;99.90;;;;;;5092141;28;19935;-62
2022/06/20 05:22:12;;;;;;;;;;;11.70;99.90;;;;;;5109896;28;19913;-61
2022/06/20 05:24:39;;;;;;;;;;;11.70;99.90;;;;;;5107291;28;19919;-61
2022/06/20 05:27:22;;;;;;;;;;;11.70;99.90;;;;;;5110463;28;19912;-61
2022/06/20 05:29:49;;;;;;;;;;;11.70;99.90;;;;;;5105154;28;19934;-61
2022/06/20 05:32:20;;;;;;;;;;;11.70;99.90;;;;;;5110635;28;19956;-61
2022/06/20 05:34:53;;;;;;;;;;;11.80;99.90;;;;;;5110654;28;19916;-62
2022/06/20 05:37:25;;;;;;;;;;;11.80;99.90;;;;;;5108050;28;19924;-61
2022/06/20 05:39:53;;;;;;;;;;;11.90;99.90;;;;;;5104026;28;19912;-62
2022/06/20 05:42:19;;;;;;;;;;;11.90;99.90;;;;;;5111072;28;19923;-61
2022/06/20 05:44:45;;;;;;;;;;;12.10;99.90;;;;;;5108363;28;19926;-61
2022/06/20 05:47:21;;;;;;;;;;;12.10;99.90;;;;;;5111346;28;19909;-62
2022/06/20 05:49:49;;;;;;;;;;;12.10;99.90;;;;;;5107643;28;19956;-60
2022/06/20 05:52:19;;;;;;;;;;;12.10;99.90;;;;;;5090663;28;19971;-61
2022/06/20 05:54:52;;;;;;;;;;;12.20;99.90;;;;;;5105717;28;19923;-62
2022/06/20 05:57:19;;;;;;;;;;;12.20;99.90;;;;;;5109910;28;20198;-61
2022/06/20 05:59:47;;;;;;;;;;;12.20;99.90;;;;;;5089250;28;19912;-62
2022/06/20 06:02:18;;;;;;;;;;;12.30;99.90;;;;;;5106422;28;19915;-62
2022/06/20 06:04:47;;;;;;;;;;;12.30;99.90;;;;;;5090791;28;19911;-62
2022/06/20 06:07:14;;;;;;;;;;;12.30;99.90;;;;;;5108121;28;19913;-62
2022/06/20 06:09:47;;;;;;;;;;;12.40;99.90;;;;;;5111689;28;19984;-62
2022/06/20 06:12:16;;;;;;;;;;;12.50;99.90;;;;;;5109925;28;19916;-62
2022/06/20 06:14:46;;;;;;;;;;;12.60;99.90;;;;;;5109887;28;19954;-62
2022/06/20 06:17:27;;;;;;;;;;;12.50;99.90;;;;;;5110199;28;19912;-62
2022/06/20 06:19:55;;;;;;;;;;;12.70;99.90;;;;;;5108095;28;19931;-61
2022/06/20 06:22:21;;;;;;;;;;;12.80;99.90;;;;;;5107863;28;19900;-62
2022/06/20 06:24:48;;;;;;;;;;;12.80;99.90;;;;;;5104104;28;20065;-62
2022/06/20 06:27:21;;;;;;;;;;;13.00;99.90;;;;;;5086907;28;19912;-62
2022/06/20 06:29:50;;;;;;;;;;;13.10;99.90;;;;;;5105852;28;19912;-62
2022/06/20 06:32:18;;;;;;;;;;;13.20;99.90;;;;;;5103491;28;19912;-62
2022/06/20 06:34:56;;;;;;;;;;;13.20;99.90;;;;;;5092840;28;19912;-61
2022/06/20 06:37:27;;;;;;;;;;;13.20;99.90;;;;;;5105853;28;19988;-62
2022/06/20 06:40:05;;;;;;;;;;;13.30;99.90;;;;;;5108633;28;19916;-61
2022/06/20 06:42:32;;;;;;;;;;;13.30;99.90;;;;;;5108381;28;19901;-62
2022/06/20 06:44:58;;;;;;;;;;;13.40;99.90;;;;;;5101719;28;19911;-62
2022/06/20 06:47:28;;;;;;;;;;;13.40;99.90;;;;;;5088037;28;19940;-62
2022/06/20 06:49:56;;;;;;;;;;;13.60;99.90;;;;;;5103785;28;19912;-62
2022/06/20 06:52:21;;;;;;;;;;;13.50;99.90;;;;;;5099065;28;19920;-63
2022/06/20 06:54:56;;;;;;;;;;;13.70;99.90;;;;;;5065260;28;19920;-62
2022/06/20 06:57:28;;;;;;;;;;;13.90;99.90;;;;;;5081427;28;19935;-62
2022/06/20 06:59:53;;;;;;;;;;;14.00;99.90;;;;;;5064529;28;20684;-61
2022/06/20 07:02:21;;;;;;;;;;;14.00;99.90;;;;;;5082184;28;19924;-61
2022/06/20 07:04:51;;;;;;;;;;;14.20;99.90;;;;;;5068704;28;19931;-62
2022/06/20 07:07:19;;;;;;;;;;;14.30;99.90;;;;;;5086787;28;19973;-62
2022/06/20 07:09:48;;;;;;;;;;;14.30;99.90;;;;;;5086679;28;19920;-62
2022/06/20 07:12:34;;;;;;;;;;;14.30;99.90;;;;;;5087191;28;20070;-62
2022/06/20 07:15:02;;;;;;;;;;;14.50;99.90;;;;;;5067615;28;20026;-62
2022/06/20 07:17:48;;;;;;;;;;;14.60;99.90;;;;;;5087810;28;19957;-63
2022/06/20 07:20:14;;;;;;;;;;;14.70;99.90;;;;;;5069701;28;19994;-62
2022/06/20 07:22:41;;;;;;;;;;;14.70;99.90;;;;;;5087409;28;20075;-61
2022/06/20 07:25:27;;;;;;;;;;;14.80;99.90;;;;;;5070061;28;19916;-62
2022/06/20 07:28:13;;;;;;;;;;;15.00;99.90;;;;;;5084559;28;19916;-61
2022/06/20 07:30:42;;;;;;;;;;;15.00;99.90;;;;;;5039798;28;19912;-62
2022/06/20 07:33:10;;;;;;;;;;;15.10;99.90;;;;;;5084863;28;19919;-63
2022/06/20 07:35:38;;;;;;;;;;;15.10;99.90;;;;;;5088932;28;19920;-62
2022/06/20 07:38:11;;;;;;;;;;;15.10;99.90;;;;;;5085090;28;20372;-62
2022/06/20 07:40:39;;;;;;;;;;;15.00;99.90;;;;;;5085623;28;19968;-62
2022/06/20 07:43:17;;;;;;;;;;;15.20;99.90;;;;;;5086750;28;19920;-62
2022/06/20 07:45:47;;;;;;;;;;;15.20;99.90;;;;;;5084899;28;19912;-62
2022/06/20 07:48:44;;;;;;;;;;;15.40;99.90;;;;;;5085518;28;19916;-63
2022/06/20 07:51:10;;;;;;;;;;;15.70;99.90;;;;;;5085628;28;20368;-63
2022/06/20 07:53:56;;;;;;;;;;;15.80;99.90;;;;;;5069923;28;19920;-62
2022/06/20 07:56:29;;;;;;;;;;;15.90;99.90;;;;;;5088043;28;19932;-62
2022/06/20 07:58:56;;;;;;;;;;;15.90;99.90;;;;;;5086983;28;19912;-62
2022/06/20 08:01:36;;;;;;;;;;;16.00;99.90;;;;;;5088399;28;19912;-62
2022/06/20 08:04:03;;;;;;;;;;;16.10;99.90;;;;;;5084597;28;20381;-62
2022/06/20 08:06:49;;;;;;;;;;;15.90;99.90;;;;;;5066800;28;19912;-62
2022/06/20 08:09:18;;;;;;;;;;;15.90;99.90;;;;;;5088866;28;19917;-62
2022/06/20 08:11:46;;;;;;;;;;;16.00;99.90;;;;;;5066474;28;19908;-62
2022/06/20 08:14:19;;;;;;;;;;;16.20;99.90;;;;;;5087082;28;20273;-62
2022/06/20 08:16:47;;;;;;;;;;;16.30;99.90;;;;;;5088352;28;19978;-62
2022/06/20 08:19:12;;;;;;;;;;;16.40;99.90;;;;;;5066505;28;19974;-62
2022/06/20 08:21:41;;;;;;;;;;;16.40;99.90;;;;;;5088844;28;20643;-63
2022/06/20 08:24:15;;;;;;;;;;;16.50;99.90;;;;;;5085531;28;20367;-61
2022/06/20 08:26:47;;;;;;;;;;;16.50;99.90;;;;;;5082834;28;19919;-63
2022/06/20 08:29:16;;;;;;;;;;;16.40;99.90;;;;;;5086835;28;19913;-61
2022/06/20 08:31:48;;;;;;;;;;;16.40;99.90;;;;;;5079140;28;19912;-62
2022/06/20 08:34:19;;;;;;;;;;;16.60;99.90;;;;;;5087962;28;19920;-62
2022/06/20 08:36:57;;;;;;;;;;;16.70;99.90;;;;;;5085894;28;19927;-62
2022/06/20 08:39:27;;;;;;;;;;;16.80;99.90;;;;;;5084088;28;19934;-62
2022/06/20 08:41:53;;;;;;;;;;;16.70;99.90;;;;;;5091896;28;20014;-62
2022/06/20 08:44:18;;;;;;;;;;;16.70;99.90;;;;;;5091768;28;19916;-63
2022/06/20 08:47:02;;;;;;;;;;;16.70;99.90;;;;;;5088093;28;20003;-62
2022/06/20 08:49:43;;;;;;;;;;;16.90;99.90;;;;;;5088031;28;19918;-63
2022/06/20 08:52:20;;;;;;;;;;;17.00;99.90;;;;;;5089030;28;19916;-63
2022/06/20 08:54:49;;;;;;;;;;;17.10;99.70;;;;;;5086763;28;20003;-62
2022/06/20 08:57:19;;;;;;;;;;;17.10;98.70;;;;;;5089457;28;19920;-63
2022/06/20 08:59:50;;;;;;;;;;;17.10;98.50;;;;;;5089970;28;19927;-63
2022/06/20 09:02:25;;;;;;;;;;;17.00;97.80;;;;;;5089413;28;19923;-63
2022/06/20 09:04:51;;;;;;;;;;;17.00;97.30;;;;;;5070460;28;19912;-63
2022/06/20 09:07:30;;;;;;;;;;;17.10;97.60;;;;;;5086721;28;19916;-62
2022/06/20 09:10:05;;;;;;;;;;;17.00;98.40;;;;;;5091848;28;19912;-63
2022/06/20 09:12:31;;;;;;;;;;;17.20;97.30;;;;;;5091519;28;22138;-63
2022/06/20 09:15:15;;;;;;;;;;;17.20;96.40;;;;;;5089868;28;19942;-63
2022/06/20 09:17:55;;;;;;;;;;;17.20;97.40;;;;;;5087558;28;20346;-63
2022/06/20 09:20:37;;;;;;;;;;;17.20;97.40;;;;;;5091975;28;19938;-63
2022/06/20 09:23:21;;;;;;;;;;;17.50;96.50;;;;;;5087635;28;19923;-62
2022/06/20 09:25:59;;;;;;;;;;;17.50;96.60;;;;;;5090314;28;19912;-63
2022/06/20 09:28:40;;;;;;;;;;;17.40;96.20;;;;;;5090605;28;19916;-64
2022/06/20 09:31:24;;;;;;;;;;;17.50;96.30;;;;;;5071067;28;19912;-63
2022/06/20 09:33:54;;;;;;;;;;;17.70;96.70;;;;;;5074871;28;20113;-63
2022/06/20 09:36:20;;;;;;;;;;;18.00;95.80;;;;;;5088043;28;19976;-63
2022/06/20 09:39:01;;;;;;;;;;;18.10;95.80;;;;;;5088301;28;20238;-62
2022/06/20 09:41:32;;;;;;;;;;;17.90;94.30;;;;;;5086337;28;20356;-63
2022/06/20 09:44:16;;;;;;;;;;;17.90;95.10;;;;;;5092509;28;19920;-63
2022/06/20 09:46:49;;;;;;;;;;;17.90;94.90;;;;;;5090759;28;20426;-63
2022/06/20 09:49:38;;;;;;;;;;;17.90;94.30;;;;;;5093156;28;19973;-63
2022/06/20 09:52:13;;;;;;;;;;;17.80;92.50;;;;;;5043891;28;20339;-63
2022/06/20 09:54:50;;;;;;;;;;;17.80;93.50;;;;;;5074118;28;19916;-63
2022/06/20 09:57:21;;;;;;;;;;;17.70;93.40;;;;;;5091812;28;20312;-62
2022/06/20 09:59:50;;;;;;;;;;;17.80;93.40;;;;;;5069454;28;19912;-63
2022/06/20 10:02:51;;;;;;;;;;;17.80;93.20;;;;;;5093154;28;20017;-63
2022/06/20 10:05:20;;;;;;;;;;;18.00;92.00;;;;;;5029819;28;19941;-63
2022/06/20 10:07:51;;;;;;;;;;;18.00;93.30;;;;;;5081687;28;19981;-62
2022/06/20 10:10:21;;;;;;;;;;;18.30;91.70;;;;;;5094796;28;20296;-63
2022/06/20 10:12:58;;;;;;;;;;;18.60;91.80;;;;;;5094349;28;19943;-62
2022/06/20 10:15:24;;;;;;;;;;;18.80;92.10;;;;;;5087277;28;19924;-63
2022/06/20 10:18:04;;;;;;;;;;;18.80;92.10;;;;;;5094487;28;19962;-63
2022/06/20 10:20:48;;;;;;;;;;;18.70;91.10;;;;;;5090282;28;19965;-63
2022/06/20 10:23:33;;;;;;;;;;;18.60;91.40;;;;;;5090487;28;19909;-63
2022/06/20 10:26:10;;;;;;;;;;;18.60;91.40;;;;;;5093878;28;19912;-63
2022/06/20 10:28:46;;;;;;;;;;;18.60;91.50;;;;;;5092554;28;20246;-63
2022/06/20 10:31:18;;;;;;;;;;;18.40;91.10;;;;;;5093453;28;19912;-62
2022/06/20 10:33:50;;;;;;;;;;;18.40;91.80;;;;;;5109377;28;19951;-61
2022/06/20 10:36:21;;;;;;;;;;;18.50;92.30;;;;;;5111408;28;20016;-62
2022/06/20 10:39:05;;;;;;;;;;;18.60;92.30;;;;;;5100239;28;19919;-61
2022/06/20 10:41:35;;;;;;;;;;;18.50;91.60;;;;;;5106208;28;19924;-62
2022/06/20 10:44:01;;;;;;;;;;;18.50;91.70;;;;;;5100509;28;19916;-62
2022/06/20 10:46:30;;;;;;;;;;;18.50;91.60;;;;;;5087294;28;19934;-62
2022/06/20 10:48:55;;;;;;;;;;;18.50;91.40;;;;;;5096642;28;19912;-62
2022/06/20 10:51:40;;;;;;;;;;;18.70;91.30;;;;;;5100711;28;20242;-61
2022/06/20 10:54:23;;;;;;;;;;;18.60;90.30;;;;;;5101727;28;19904;-63
2022/06/20 10:57:08;;;;;;;;;;;18.60;90.90;;;;;;5103680;28;19926;-63
2022/06/20 10:59:33;;;;;;;;;;;18.60;91.10;;;;;;5104822;28;19938;-60
2022/06/20 11:02:25;;;;;;;;;;;18.70;91.80;;;;;;5099691;28;19916;-63
2022/06/20 11:05:06;;;;;;;;;;;18.90;90.90;;;;;;5059725;28;19968;-61
2022/06/20 11:07:52;;;;;;;;;;;18.80;91.10;;;;;;5100145;28;19955;-61
2022/06/20 11:10:29;;;;;;;;;;;18.90;91.40;;;;;;5098962;28;19912;-61
2022/06/20 11:12:58;;;;;;;;;;;19.00;91.50;;;;;;5088003;28;19912;-63
2022/06/20 11:15:29;;;;;;;;;;;19.10;91.10;;;;;;5092193;28;19974;-61
2022/06/20 11:17:55;;;;;;;;;;;18.90;90.80;;;;;;5087123;28;19913;-61
2022/06/20 11:20:23;;;;;;;;;;;18.90;91.50;;;;;;5100138;28;20267;-62
2022/06/20 11:23:07;;;;;;;;;;;19.00;90.90;;;;;;5088632;28;20071;-61
2022/06/20 11:25:33;;;;;;;;;;;19.00;90.40;;;;;;5102392;28;20383;-62
2022/06/20 11:28:08;;;;;;;;;;;19.00;91.00;;;;;;5099082;28;19928;-60
2022/06/20 11:30:49;;;;;;;;;;;18.80;91.40;;;;;;5103307;28;19912;-61
2022/06/20 11:34:00;;;;;;;;;;;19.00;90.50;;;;;;5099048;28;19927;-60
2022/06/20 11:36:12;;;;;;;;;;;19.30;90.10;;;;;;5104910;28;20388;-61
2022/06/20 11:38:59;;;;;;;;;;;19.30;90.30;;;;;;5105187;28;19900;-61
2022/06/20 11:41:36;;;;;;;;;;;19.10;90.30;;;;;;5089263;28;19916;-61
2022/06/20 11:44:07;;;;;;;;;;;19.10;89.50;;;;;;5088542;28;19923;-62
2022/06/20 11:46:53;;;;;;;;;;;19.10;90.40;;;;;;5106331;28;19900;-61
2022/06/20 11:49:38;;;;;;;;;;;19.20;90.10;;;;;;5104409;28;19972;-61
2022/06/20 11:52:03;;;;;;;;;;;19.40;89.40;;;;;;5099329;28;19919;-61
2022/06/20 11:54:48;;;;;;;;;;;19.50;89.70;;;;;;5108722;28;19948;-60
2022/06/20 11:57:14;;;;;;;;;;;19.60;88.80;;;;;;5106405;28;19984;-61
2022/06/20 12:00:01;;;;;;;;;;;19.60;88.60;;;;;;5092029;28;19955;-61
2022/06/20 12:02:26;;;;;;;;;;;19.50;89.00;;;;;;5101650;28;19909;-62
2022/06/20 12:05:01;;;;;;;;;;;19.50;89.90;;;;;;5103097;28;19912;-61
2022/06/20 12:07:40;;;;;;;;;;;19.60;89.90;;;;;;5090655;28;19912;-62
2022/06/20 12:10:14;;;;;;;;;;;19.70;88.70;;;;;;5094583;28;19916;-62
2022/06/20 12:12:40;;;;;;;;;;;19.60;87.20;;;;;;5103200;28;19916;-62
2022/06/20 12:15:21;;;;;;;;;;;19.50;88.40;;;;;;5097213;28;19928;-62
2022/06/20 12:17:53;;;;;;;;;;;19.60;88.20;;;;;;5100206;28;20145;-62
2022/06/20 12:23:27;;;;;;;;;;;19.60;88.20;;;;;;5105701;28;19923;-61
2022/06/20 12:26:03;;;;;;;;;;;19.80;89.20;;;;;;5107785;28;19959;-61
2022/06/20 12:28:37;;;;;;;;;;;19.70;86.90;;;;;;5106257;28;20019;-62
2022/06/20 12:31:08;;;;;;;;;;;19.50;87.50;;;;;;5102492;28;20084;-61
2022/06/20 12:33:35;;;;;;;;;;;19.60;89.00;;;;;;5089917;28;19949;-61
2022/06/20 12:36:09;;;;;;;;;;;19.80;88.10;;;;;;5102769;28;19985;-61
2022/06/20 12:38:40;;;;;;;;;;;19.90;87.40;;;;;;5094876;28;19930;-62
2022/06/20 12:41:10;;;;;;;;;;;20.00;86.70;;;;;;5087455;28;19924;-61
2022/06/20 12:43:50;;;;;;;;;;;20.00;84.50;;;;;;5087605;28;19990;-62
2022/06/20 12:46:16;;;;;;;;;;;20.00;85.00;;;;;;5068491;28;19919;-62
2022/06/20 12:49:00;;;;;;;;;;;20.00;85.40;;;;;;5086933;28;19920;-61
2022/06/20 12:51:26;;;;;;;;;;;20.00;84.20;;;;;;5084219;28;20008;-62
2022/06/20 12:53:58;;;;;;;;;;;20.10;84.80;;;;;;5089376;28;20044;-62
2022/06/20 12:56:46;;;;;;;;;;;20.30;85.30;;;;;;5102099;28;19915;-61
2022/06/20 12:59:25;;;;;;;;;;;20.40;83.60;;;;;;5077395;28;19924;-61
2022/06/20 13:01:54;;;;;;;;;;;20.30;83.50;;;;;;5096709;28;19940;-61
2022/06/20 13:04:20;;;;;;;;;;;20.40;83.30;;;;;;5077546;28;19958;-61
2022/06/20 13:06:52;;;;;;;;;;;20.40;83.30;;;;;;5081082;28;19911;-62
2022/06/20 13:09:24;;;;;;;;;;;20.60;83.10;;;;;;5103025;28;19919;-62
2022/06/20 13:11:50;;;;;;;;;;;20.50;82.60;;;;;;5094072;28;19938;-61
2022/06/20 13:14:21;;;;;;;;;;;20.40;82.50;;;;;;5101161;28;19912;-62
2022/06/20 13:16:49;;;;;;;;;;;20.50;82.20;;;;;;5098675;28;19920;-61
2022/06/20 13:19:21;;;;;;;;;;;20.60;81.80;;;;;;5098111;28;19968;-61
2022/06/20 13:21:48;;;;;;;;;;;20.70;82.20;;;;;;5102703;28;19912;-62
2022/06/20 13:24:33;;;;;;;;;;;20.90;81.70;;;;;;5098562;28;19912;-62
2022/06/20 13:27:17;;;;;;;;;;;20.70;82.60;;;;;;5098574;28;19912;-62
2022/06/20 13:29:47;;;;;;;;;;;20.70;82.90;;;;;;5098520;28;19912;-61
2022/06/20 13:32:17;;;;;;;;;;;20.60;82.00;;;;;;5102282;28;19923;-62
2022/06/20 13:34:49;;;;;;;;;;;20.70;82.10;;;;;;5105506;28;19912;-61
2022/06/20 13:37:22;;;;;;;;;;;20.90;80.50;;;;;;5110985;28;19916;-61
2022/06/20 13:39:50;;;;;;;;;;;20.90;80.50;;;;;;5110342;28;19912;-61
2022/06/20 13:42:25;;;;;;;;;;;20.80;79.50;;;;;;5093130;28;19923;-61
2022/06/20 13:45:11;;;;;;;;;;;20.80;80.90;;;;;;5107262;28;20353;-62
2022/06/20 13:48:00;;;;;;;;;;;20.90;81.30;;;;;;5038468;28;19954;-62
2022/06/20 13:50:34;;;;;;;;;;;20.70;80.30;;;;;;5106435;28;19923;-61
2022/06/20 13:53:09;;;;;;;;;;;20.60;81.20;;;;;;5087714;28;19913;-62
2022/06/20 13:55:42;;;;;;;;;;;20.50;80.80;;;;;;5107171;28;19912;-62
2022/06/20 13:58:27;;;;;;;;;;;20.60;80.50;;;;;;5110818;28;19920;-62
2022/06/20 14:00:55;;;;;;;;;;;20.70;80.50;;;;;;5097412;28;19992;-62
2022/06/20 14:03:27;;;;;;;;;;;20.80;78.90;;;;;;5106734;28;19900;-62
2022/06/20 14:06:03;;;;;;;;;;;20.90;79.40;;;;;;5108317;28;19932;-61
2022/06/20 14:08:29;;;;;;;;;;;21.10;80.10;;;;;;5105597;28;20010;-62
2022/06/20 14:10:57;;;;;;;;;;;21.30;79.30;;;;;;5089710;28;19912;-62
2022/06/20 14:13:29;;;;;;;;;;;21.40;78.40;;;;;;5088851;28;20022;-61
2022/06/20 14:16:14;;;;;;;;;;;21.50;78.00;;;;;;5091862;28;20018;-62
2022/06/20 14:18:45;;;;;;;;;;;21.40;78.30;;;;;;5070759;28;19958;-62
2022/06/20 14:21:10;;;;;;;;;;;21.20;77.90;;;;;;5092838;28;19923;-62
2022/06/20 14:23:37;;;;;;;;;;;21.30;78.90;;;;;;5069633;28;19912;-61
2022/06/20 14:26:04;;;;;;;;;;;21.20;79.10;;;;;;5089572;28;20005;-62
2022/06/20 14:28:33;;;;;;;;;;;21.20;78.50;;;;;;5071120;28;19916;-63
2022/06/20 14:31:02;;;;;;;;;;;21.10;79.30;;;;;;5090571;28;19920;-62
2022/06/20 14:33:36;;;;;;;;;;;21.40;78.40;;;;;;5089886;28;19965;-61
2022/06/20 14:36:06;;;;;;;;;;;21.60;78.50;;;;;;5097687;28;19924;-62
2022/06/20 14:38:41;;;;;;;;;;;22.20;77.50;;;;;;5102953;27;19915;-62
2022/06/20 14:41:39;;;;;;;;;;;23.60;74.40;;;;;;5090902;28;19926;-62
2022/06/20 14:44:00;;;;;;;;;;;25.40;70.90;;;;;;5097589;28;19970;-63
2022/06/20 14:46:33;;;;;;;;;;;26.40;67.30;;;;;;5078015;28;19933;-62
2022/06/20 14:49:09;;;;;;;;;;;28.10;63.30;;;;;;5091078;28;19919;-63
2022/06/20 14:51:38;;;;;;;;;;;28.90;60.80;;;;;;5103564;28;19917;-63
2022/06/20 14:54:07;;;;;;;;;;;29.50;59.70;;;;;;5100221;28;19918;-61
2022/06/20 14:56:41;;;;;;;;;;;29.80;57.80;;;;;;5093309;28;19987;-62